createdAt,value
2022-09-30T00:00:56.065Z,5.06
2022-09-30T00:01:56.010Z,5.04
2022-09-30T00:02:55.941Z,5.04
2022-09-30T00:03:55.785Z,5.12
2022-09-30T00:04:55.697Z,5.12
2022-09-30T00:05:55.665Z,5.00
2022-09-30T00:06:55.518Z,5.04
2022-09-30T00:07:55.413Z,5.00
2022-09-30T00:08:55.310Z,4.97
2022-09-30T00:09:55.255Z,4.97
2022-09-30T00:10:55.125Z,5.00
2022-09-30T00:11:55.031Z,5.01
2022-09-30T00:12:54.941Z,5.01
2022-09-30T00:13:54.857Z,5.00
2022-09-30T00:14:54.785Z,5.01
2022-09-30T00:15:54.709Z,4.91
2022-09-30T00:16:54.594Z,4.94
2022-09-30T00:17:54.516Z,5.01
2022-09-30T00:18:54.382Z,4.94
2022-09-30T00:19:54.283Z,4.98
2022-09-30T00:20:54.210Z,4.98
2022-09-30T00:21:54.117Z,4.98
2022-09-30T00:22:54.016Z,4.96
2022-09-30T00:23:53.914Z,4.97
2022-09-30T00:24:53.827Z,5.00
2022-09-30T00:25:53.734Z,4.97
2022-09-30T00:26:53.633Z,5.06
2022-09-30T00:27:53.538Z,4.94
2022-09-30T00:28:53.439Z,4.96
2022-09-30T00:29:53.399Z,4.94
2022-09-30T00:30:53.269Z,4.98
2022-09-30T00:31:53.310Z,4.93
2022-09-30T00:32:53.081Z,4.96
2022-09-30T00:33:52.996Z,4.91
2022-09-30T00:34:52.897Z,4.93
2022-09-30T00:35:52.796Z,4.85
2022-09-30T00:36:52.715Z,4.79
2022-09-30T00:37:52.614Z,4.77
2022-09-30T00:38:52.604Z,4.77
2022-09-30T00:39:52.432Z,4.74
2022-09-30T00:40:52.328Z,4.69
2022-09-30T00:41:52.240Z,4.66
2022-09-30T00:42:52.139Z,4.69
2022-09-30T00:43:52.054Z,4.72
2022-09-30T00:44:51.972Z,4.72
2022-09-30T00:45:51.878Z,4.74
2022-09-30T00:46:51.792Z,4.72
2022-09-30T00:47:51.682Z,4.63
2022-09-30T00:48:51.579Z,4.77
2022-09-30T00:49:51.491Z,4.60
2022-09-30T00:50:51.440Z,4.64
2022-09-30T00:51:51.306Z,4.67
2022-09-30T00:52:51.212Z,4.71
2022-09-30T00:53:51.120Z,4.67
2022-09-30T00:54:51.057Z,4.74
2022-09-30T00:55:50.925Z,4.74
2022-09-30T00:56:50.831Z,4.69
2022-09-30T00:57:50.753Z,4.69
2022-09-30T00:58:50.650Z,4.66
2022-09-30T00:59:50.593Z,4.59
2022-09-30T01:00:50.496Z,4.63
2022-09-30T01:01:50.451Z,4.61
2022-09-30T01:02:50.287Z,4.66
2022-09-30T01:03:50.187Z,4.59
2022-09-30T01:04:50.093Z,4.54
2022-09-30T01:05:49.990Z,4.53
2022-09-30T01:06:49.914Z,4.51
2022-09-30T01:07:49.811Z,4.45
2022-09-30T01:08:49.722Z,4.51
2022-09-30T01:09:49.722Z,4.45
2022-09-30T01:10:49.525Z,4.53
2022-09-30T01:11:49.441Z,4.43
2022-09-30T01:12:49.371Z,4.45
2022-09-30T01:13:49.249Z,4.46
2022-09-30T01:14:49.149Z,4.43
2022-09-30T01:15:49.130Z,4.43
2022-09-30T01:16:48.966Z,4.54
2022-09-30T01:17:48.872Z,4.54
2022-09-30T01:18:48.778Z,4.57
2022-09-30T01:19:48.694Z,4.56
2022-09-30T01:20:48.598Z,4.61
2022-09-30T01:21:48.517Z,4.46
2022-09-30T01:22:48.409Z,4.45
2022-09-30T01:23:48.303Z,4.39
2022-09-30T01:24:48.220Z,4.30
2022-09-30T01:25:48.117Z,4.41
2022-09-30T01:26:48.152Z,4.39
2022-09-30T01:27:47.957Z,4.46
2022-09-30T01:28:47.838Z,4.41
2022-09-30T01:29:47.756Z,4.41
2022-09-30T01:30:47.666Z,4.42
2022-09-30T01:31:47.628Z,4.28
2022-09-30T01:32:47.468Z,4.34
2022-09-30T01:33:47.367Z,4.36
2022-09-30T01:34:47.284Z,4.30
2022-09-30T01:35:47.182Z,4.34
2022-09-30T01:36:47.101Z,4.30
2022-09-30T01:37:46.996Z,4.34
2022-09-30T01:38:46.934Z,4.27
2022-09-30T01:39:46.812Z,4.28
2022-09-30T01:40:46.712Z,4.28
2022-09-30T01:41:46.615Z,4.28
2022-09-30T01:42:46.579Z,4.26
2022-09-30T01:43:46.435Z,4.28
2022-09-30T01:44:46.340Z,4.34
2022-09-30T01:45:46.249Z,4.27
2022-09-30T01:46:46.237Z,4.35
2022-09-30T01:47:46.066Z,4.30
2022-09-30T01:48:46.001Z,4.26
2022-09-30T01:49:45.884Z,4.26
2022-09-30T01:50:45.799Z,4.23
2022-09-30T01:51:45.686Z,4.20
2022-09-30T01:52:45.602Z,4.20
2022-09-30T01:53:45.498Z,4.21
2022-09-30T01:54:45.403Z,4.20
2022-09-30T01:55:45.322Z,4.21
2022-09-30T01:56:45.226Z,4.20
2022-09-30T01:57:45.134Z,4.21
2022-09-30T01:58:45.033Z,4.20
2022-09-30T01:59:44.933Z,4.26
2022-09-30T02:00:44.932Z,4.23
2022-09-30T02:01:44.806Z,4.10
2022-09-30T02:02:44.665Z,4.08
2022-09-30T02:03:44.558Z,4.18
2022-09-30T02:04:44.456Z,4.16
2022-09-30T02:05:44.368Z,4.10
2022-09-30T02:06:44.286Z,4.08
2022-09-30T02:07:44.233Z,4.10
2022-09-30T02:08:44.120Z,4.17
2022-09-30T02:09:44.047Z,4.20
2022-09-30T02:10:43.904Z,4.17
2022-09-30T02:11:43.806Z,4.26
2022-09-30T02:12:43.735Z,4.21
2022-09-30T02:13:43.630Z,4.18
2022-09-30T02:14:43.530Z,4.16
2022-09-30T02:15:43.466Z,4.10
2022-09-30T02:16:43.347Z,4.09
2022-09-30T02:17:43.283Z,4.03
2022-09-30T02:18:43.153Z,4.12
2022-09-30T02:19:43.070Z,4.12
2022-09-30T02:20:42.971Z,4.02
2022-09-30T02:21:42.895Z,4.05
2022-09-30T02:22:42.774Z,4.08
2022-09-30T02:23:42.826Z,4.06
2022-09-30T02:24:42.596Z,4.00
2022-09-30T02:25:42.516Z,3.92
2022-09-30T02:26:42.430Z,4.08
2022-09-30T02:27:42.350Z,4.05
2022-09-30T02:28:42.217Z,4.06
2022-09-30T02:29:42.110Z,4.02
2022-09-30T02:30:42.060Z,4.02
2022-09-30T02:31:42.047Z,4.05
2022-09-30T02:32:41.833Z,4.03
2022-09-30T02:33:41.738Z,3.98
2022-09-30T02:34:41.652Z,3.91
2022-09-30T02:35:41.573Z,3.94
2022-09-30T02:36:41.469Z,4.05
2022-09-30T02:37:50.045Z,4.00
2022-09-30T02:39:45.662Z,4.05
2022-09-30T02:40:45.543Z,3.88
2022-09-30T02:41:45.449Z,3.98
2022-09-30T02:42:45.350Z,3.92
2022-09-30T02:43:45.315Z,4.05
2022-09-30T02:44:45.182Z,4.02
2022-09-30T02:45:45.072Z,4.00
2022-09-30T02:46:45.023Z,3.96
2022-09-30T02:47:44.887Z,3.94
2022-09-30T02:48:44.791Z,4.05
2022-09-30T02:49:44.698Z,3.96
2022-09-30T02:50:44.606Z,4.02
2022-09-30T02:51:44.506Z,3.99
2022-09-30T02:52:44.415Z,4.03
2022-09-30T02:53:44.320Z,3.99
2022-09-30T02:54:44.223Z,4.02
2022-09-30T02:55:44.127Z,3.91
2022-09-30T02:56:44.032Z,3.92
2022-09-30T02:57:43.942Z,3.94
2022-09-30T02:58:43.850Z,4.05
2022-09-30T02:59:43.760Z,3.98
2022-09-30T03:00:43.714Z,3.91
2022-09-30T03:01:43.604Z,4.00
2022-09-30T03:02:43.475Z,3.98
2022-09-30T03:03:43.377Z,4.02
2022-09-30T03:04:43.285Z,4.08
2022-09-30T03:05:43.193Z,4.03
2022-09-30T03:06:43.095Z,4.00
2022-09-30T03:07:43.005Z,3.98
2022-09-30T03:08:42.894Z,4.02
2022-09-30T03:09:42.884Z,4.00
2022-09-30T03:10:42.721Z,3.91
2022-09-30T03:11:42.631Z,3.92
2022-09-30T03:12:42.528Z,3.98
2022-09-30T03:13:42.441Z,3.90
2022-09-30T03:14:42.343Z,3.82
2022-09-30T03:15:42.246Z,3.84
2022-09-30T03:16:42.208Z,3.84
2022-09-30T03:17:42.067Z,3.90
2022-09-30T03:18:41.964Z,3.87
2022-09-30T03:19:41.874Z,3.82
2022-09-30T03:20:41.781Z,3.85
2022-09-30T03:21:41.681Z,3.85
2022-09-30T03:22:41.591Z,3.87
2022-09-30T03:23:41.495Z,3.76
2022-09-30T03:24:41.400Z,3.87
2022-09-30T03:25:41.318Z,3.85
2022-09-30T03:26:41.200Z,3.84
2022-09-30T03:27:41.118Z,3.84
2022-09-30T03:28:41.024Z,3.78
2022-09-30T03:29:40.935Z,3.85
2022-09-30T03:30:40.840Z,3.81
2022-09-30T03:31:40.805Z,3.81
2022-09-30T03:32:40.646Z,3.63
2022-09-30T03:33:40.548Z,3.73
2022-09-30T03:34:40.462Z,3.73
2022-09-30T03:35:40.361Z,3.67
2022-09-30T03:36:40.270Z,3.82
2022-09-30T03:37:40.174Z,3.81
2022-09-30T03:38:40.080Z,3.80
2022-09-30T03:39:39.987Z,3.70
2022-09-30T03:40:39.899Z,3.76
2022-09-30T03:41:39.802Z,3.82
2022-09-30T03:42:39.704Z,3.80
2022-09-30T03:43:39.609Z,3.78
2022-09-30T03:44:39.517Z,3.80
2022-09-30T03:45:39.422Z,3.64
2022-09-30T03:46:39.344Z,3.70
2022-09-30T03:47:39.246Z,3.70
2022-09-30T03:48:39.144Z,3.78
2022-09-30T03:49:39.051Z,3.69
2022-09-30T03:50:38.951Z,3.73
2022-09-30T03:51:38.853Z,3.73
2022-09-30T03:52:38.760Z,3.70
2022-09-30T03:53:38.672Z,3.70
2022-09-30T03:54:38.571Z,3.70
2022-09-30T03:55:38.482Z,3.70
2022-09-30T03:56:38.381Z,3.67
2022-09-30T03:57:38.293Z,3.70
2022-09-30T03:58:38.197Z,3.70
2022-09-30T03:59:38.108Z,3.64
2022-09-30T04:00:38.030Z,3.63
2022-09-30T04:01:37.943Z,3.62
2022-09-30T04:02:37.821Z,3.64
2022-09-30T04:03:37.727Z,3.63
2022-09-30T04:04:37.626Z,3.52
2022-09-30T04:05:37.539Z,3.55
2022-09-30T04:06:37.443Z,3.64
2022-09-30T04:07:37.353Z,3.64
2022-09-30T04:08:37.258Z,3.66
2022-09-30T04:09:37.224Z,3.56
2022-09-30T04:10:37.069Z,3.56
2022-09-30T04:11:36.966Z,3.56
2022-09-30T04:12:36.875Z,3.60
2022-09-30T04:13:36.788Z,3.66
2022-09-30T04:14:36.693Z,3.64
2022-09-30T04:15:36.594Z,3.62
2022-09-30T04:16:36.528Z,3.63
2022-09-30T04:17:36.419Z,3.56
2022-09-30T04:18:36.318Z,3.59
2022-09-30T04:19:36.213Z,3.59
2022-09-30T04:20:36.121Z,3.64
2022-09-30T04:21:36.045Z,3.66
2022-09-30T04:22:35.937Z,3.62
2022-09-30T04:23:35.842Z,3.64
2022-09-30T04:24:35.743Z,3.55
2022-09-30T04:25:35.653Z,3.59
2022-09-30T04:26:35.552Z,3.46
2022-09-30T04:27:35.461Z,3.41
2022-09-30T04:28:35.370Z,3.54
2022-09-30T04:29:35.273Z,3.51
2022-09-30T04:30:35.180Z,3.55
2022-09-30T04:31:35.230Z,3.55
2022-09-30T04:32:34.991Z,3.52
2022-09-30T04:33:34.899Z,3.54
2022-09-30T04:34:34.802Z,3.48
2022-09-30T04:35:34.705Z,3.49
2022-09-30T04:36:34.611Z,3.45
2022-09-30T04:37:34.566Z,3.54
2022-09-30T04:38:34.425Z,3.52
2022-09-30T04:39:34.327Z,3.52
2022-09-30T04:40:34.237Z,3.60
2022-09-30T04:41:34.186Z,3.54
2022-09-30T04:42:34.046Z,3.48
2022-09-30T04:43:33.949Z,3.44
2022-09-30T04:44:33.856Z,3.41
2022-09-30T04:45:33.813Z,3.45
2022-09-30T04:46:33.661Z,3.37
2022-09-30T04:47:33.576Z,3.35
2022-09-30T04:48:33.489Z,3.36
2022-09-30T04:49:33.393Z,3.41
2022-09-30T04:50:33.293Z,3.37
2022-09-30T04:51:33.192Z,3.41
2022-09-30T04:52:33.102Z,3.36
2022-09-30T04:53:33.009Z,3.46
2022-09-30T04:54:32.907Z,3.42
2022-09-30T04:55:32.817Z,3.44
2022-09-30T04:56:32.723Z,3.48
2022-09-30T04:57:32.630Z,3.52
2022-09-30T04:58:36.904Z,3.46
2022-09-30T04:59:32.436Z,3.36
2022-09-30T05:00:32.392Z,3.44
2022-09-30T05:01:32.253Z,3.36
2022-09-30T05:02:32.155Z,3.51
2022-09-30T05:03:32.061Z,3.54
2022-09-30T05:04:31.967Z,3.48
2022-09-30T05:05:31.873Z,3.55
2022-09-30T05:06:31.787Z,3.59
2022-09-30T05:07:31.680Z,3.52
2022-09-30T05:08:31.586Z,3.54
2022-09-30T05:09:31.532Z,3.45
2022-09-30T05:10:31.401Z,3.54
2022-09-30T05:11:31.304Z,3.52
2022-09-30T05:12:31.211Z,3.54
2022-09-30T05:13:31.115Z,3.54
2022-09-30T05:14:31.029Z,3.54
2022-09-30T05:15:30.942Z,3.55
2022-09-30T05:16:30.884Z,3.45
2022-09-30T05:17:30.739Z,3.54
2022-09-30T05:18:30.654Z,3.56
2022-09-30T05:19:30.565Z,3.46
2022-09-30T05:20:30.453Z,3.35
2022-09-30T05:21:30.368Z,3.37
2022-09-30T05:22:30.260Z,3.36
2022-09-30T05:23:30.173Z,3.42
2022-09-30T05:24:30.079Z,3.36
2022-09-30T05:25:30.064Z,3.33
2022-09-30T05:26:29.886Z,3.37
2022-09-30T05:27:29.789Z,3.42
2022-09-30T05:28:29.698Z,3.37
2022-09-30T05:29:29.604Z,3.35
2022-09-30T05:30:29.510Z,3.37
2022-09-30T05:31:29.458Z,3.36
2022-09-30T05:32:29.318Z,3.36
2022-09-30T05:33:29.231Z,3.37
2022-09-30T05:34:29.129Z,3.42
2022-09-30T05:35:29.030Z,3.35
2022-09-30T05:36:28.951Z,3.44
2022-09-30T05:37:28.854Z,3.44
2022-09-30T05:38:28.757Z,3.35
2022-09-30T05:39:28.658Z,3.36
2022-09-30T05:40:28.567Z,3.46
2022-09-30T05:41:28.472Z,3.52
2022-09-30T05:42:28.378Z,3.55
2022-09-30T05:43:28.281Z,3.48
2022-09-30T05:44:28.181Z,3.60
2022-09-30T05:45:28.092Z,3.59
2022-09-30T05:46:28.075Z,3.60
2022-09-30T05:47:27.898Z,3.60
2022-09-30T05:48:27.808Z,3.54
2022-09-30T05:49:27.709Z,3.60
2022-09-30T05:50:27.617Z,3.66
2022-09-30T05:51:27.526Z,3.67
2022-09-30T05:52:27.426Z,3.67
2022-09-30T05:53:27.332Z,3.69
2022-09-30T05:54:27.239Z,3.74
2022-09-30T05:55:27.146Z,3.82
2022-09-30T05:56:27.052Z,3.85
2022-09-30T05:57:26.955Z,3.85
2022-09-30T05:58:26.864Z,3.84
2022-09-30T05:59:26.783Z,3.76
2022-09-30T06:00:26.665Z,3.74
2022-09-30T06:01:26.576Z,3.76
2022-09-30T06:02:26.648Z,3.84
2022-09-30T06:03:26.387Z,3.73
2022-09-30T06:04:26.295Z,3.88
2022-09-30T06:05:26.197Z,3.90
2022-09-30T06:06:26.107Z,3.92
2022-09-30T06:07:26.009Z,3.94
2022-09-30T06:08:25.911Z,4.02
2022-09-30T06:09:25.999Z,4.00
2022-09-30T06:10:25.725Z,3.98
2022-09-30T06:11:25.633Z,4.08
2022-09-30T06:12:25.542Z,4.06
2022-09-30T06:13:25.440Z,4.10
2022-09-30T06:14:25.352Z,4.08
2022-09-30T06:15:25.253Z,4.03
2022-09-30T06:16:25.232Z,4.05
2022-09-30T06:17:25.067Z,4.08
2022-09-30T06:18:24.972Z,4.06
2022-09-30T06:19:24.883Z,4.02
2022-09-30T06:20:24.783Z,4.06
2022-09-30T06:21:24.686Z,4.06
2022-09-30T06:22:24.595Z,3.98
2022-09-30T06:23:24.500Z,4.05
2022-09-30T06:24:24.402Z,4.09
2022-09-30T06:25:24.310Z,4.09
2022-09-30T06:26:24.220Z,4.13
2022-09-30T06:27:24.126Z,4.08
2022-09-30T06:28:24.028Z,4.23
2022-09-30T06:29:24.135Z,4.23
2022-09-30T06:30:23.843Z,4.24
2022-09-30T06:31:23.792Z,4.18
2022-09-30T06:32:23.645Z,4.21
2022-09-30T06:33:23.552Z,4.26
2022-09-30T06:34:23.468Z,4.34
2022-09-30T06:35:23.369Z,4.43
2022-09-30T06:36:23.287Z,4.45
2022-09-30T06:37:23.184Z,4.59
2022-09-30T06:38:23.089Z,4.60
2022-09-30T06:39:23.105Z,4.61
2022-09-30T06:40:22.900Z,4.66
2022-09-30T06:41:22.805Z,4.74
2022-09-30T06:42:22.708Z,4.77
2022-09-30T06:43:22.617Z,4.79
2022-09-30T06:44:22.524Z,4.85
2022-09-30T06:45:31.769Z,4.85
2022-09-30T06:46:29.575Z,4.96
2022-09-30T06:47:25.623Z,5.04
2022-09-30T06:48:33.672Z,4.97
2022-09-30T06:49:22.202Z,5.04
2022-09-30T06:50:25.631Z,5.12
2022-09-30T06:51:21.860Z,5.11
2022-09-30T06:52:21.774Z,5.21
2022-09-30T06:53:21.679Z,5.24
2022-09-30T06:54:21.579Z,5.25
2022-09-30T06:55:21.490Z,5.33
2022-09-30T06:56:21.397Z,5.43
2022-09-30T06:57:21.303Z,5.39
2022-09-30T06:58:21.204Z,5.43
2022-09-30T06:59:21.114Z,5.51
2022-09-30T07:00:21.018Z,5.48
2022-09-30T07:01:21.021Z,5.55
2022-09-30T07:02:20.880Z,5.55
2022-09-30T07:03:20.738Z,5.62
2022-09-30T07:04:20.642Z,5.70
2022-09-30T07:05:20.556Z,5.73
2022-09-30T07:06:20.460Z,5.75
2022-09-30T07:07:20.370Z,5.79
2022-09-30T07:08:20.270Z,5.77
2022-09-30T07:09:20.378Z,5.93
2022-09-30T07:10:20.085Z,5.91
2022-09-30T07:11:20.000Z,5.91
2022-09-30T07:12:19.902Z,5.98
2022-09-30T07:13:19.807Z,5.98
2022-09-30T07:14:19.706Z,6.15
2022-09-30T07:15:19.618Z,6.31
2022-09-30T07:16:19.613Z,6.34
2022-09-30T07:17:19.441Z,6.61
2022-09-30T07:18:19.339Z,6.71
2022-09-30T07:19:19.278Z,6.67
2022-09-30T07:20:19.161Z,6.78
2022-09-30T07:21:19.055Z,6.91
2022-09-30T07:22:18.970Z,6.97
2022-09-30T07:23:21.285Z,7.01
2022-09-30T07:24:18.782Z,7.06
2022-09-30T07:25:18.687Z,7.08
2022-09-30T07:26:18.596Z,7.07
2022-09-30T07:27:18.497Z,7.15
2022-09-30T07:28:18.404Z,7.24
2022-09-30T07:29:18.337Z,7.37
2022-09-30T07:30:25.825Z,7.49
2022-09-30T07:31:32.406Z,7.55
2022-09-30T07:32:18.093Z,7.69
2022-09-30T07:33:17.946Z,7.78
2022-09-30T07:34:17.847Z,7.96
2022-09-30T07:35:17.758Z,7.86
2022-09-30T07:36:17.661Z,7.99
2022-09-30T07:37:17.570Z,8.06
2022-09-30T07:38:17.478Z,8.14
2022-09-30T07:39:17.379Z,8.10
2022-09-30T07:40:17.294Z,8.19
2022-09-30T07:41:17.204Z,8.23
2022-09-30T07:42:21.683Z,8.37
2022-09-30T07:43:17.023Z,8.39
2022-09-30T07:44:16.923Z,8.38
2022-09-30T07:45:16.839Z,8.44
2022-09-30T07:46:16.855Z,8.50
2022-09-30T07:47:16.642Z,8.47
2022-09-30T07:48:16.552Z,8.60
2022-09-30T07:49:16.472Z,8.68
2022-09-30T07:50:16.379Z,8.72
2022-09-30T07:51:16.283Z,8.80
2022-09-30T07:52:16.187Z,8.85
2022-09-30T07:53:16.099Z,8.89
2022-09-30T07:54:16.007Z,8.89
2022-09-30T07:55:15.912Z,9.09
2022-09-30T07:56:15.817Z,9.14
2022-09-30T07:57:15.729Z,9.16
2022-09-30T07:58:15.631Z,9.18
2022-09-30T07:59:15.577Z,9.19
2022-09-30T08:00:41.002Z,9.27
2022-09-30T08:01:15.398Z,9.44
2022-09-30T08:02:15.378Z,9.54
2022-09-30T08:03:15.187Z,9.65
2022-09-30T08:04:15.089Z,9.70
2022-09-30T08:05:15.008Z,9.70
2022-09-30T08:06:14.907Z,9.78
2022-09-30T08:07:14.814Z,9.85
2022-09-30T08:08:14.728Z,10.01
2022-09-30T08:09:14.749Z,10.16
2022-09-30T08:10:14.588Z,10.12
2022-09-30T08:11:14.448Z,10.20
2022-09-30T08:12:14.357Z,10.21
2022-09-30T08:13:14.269Z,10.24
2022-09-30T08:14:14.178Z,10.34
2022-09-30T08:15:14.082Z,10.38
2022-09-30T08:16:14.021Z,10.57
2022-09-30T08:17:13.903Z,10.61
2022-09-30T08:18:13.813Z,10.79
2022-09-30T08:19:13.713Z,10.75
2022-09-30T08:20:16.555Z,10.86
2022-09-30T08:21:13.534Z,10.87
2022-09-30T08:22:13.448Z,10.94
2022-09-30T08:23:13.361Z,11.13
2022-09-30T08:24:13.264Z,11.28
2022-09-30T08:25:13.175Z,11.28
2022-09-30T08:26:13.095Z,11.41
2022-09-30T08:27:13.051Z,11.52
2022-09-30T08:28:12.907Z,11.64
2022-09-30T08:29:20.030Z,11.66
2022-09-30T08:30:12.720Z,11.77
2022-09-30T08:31:12.630Z,11.93
2022-09-30T08:32:12.581Z,11.93
2022-09-30T08:33:12.454Z,12.07
2022-09-30T08:34:12.362Z,12.11
2022-09-30T08:35:12.282Z,12.17
2022-09-30T08:36:12.180Z,12.15
2022-09-30T08:37:12.092Z,12.32
2022-09-30T08:38:12.004Z,12.40
2022-09-30T08:39:11.913Z,12.32
2022-09-30T08:40:11.820Z,12.38
2022-09-30T08:41:11.742Z,12.35
2022-09-30T08:42:25.446Z,12.51
2022-09-30T08:43:11.553Z,12.54
2022-09-30T08:44:11.467Z,12.62
2022-09-30T08:45:11.372Z,12.68
2022-09-30T08:46:11.349Z,12.79
2022-09-30T08:47:11.192Z,12.73
2022-09-30T08:48:11.129Z,12.88
2022-09-30T08:49:11.032Z,12.93
2022-09-30T08:50:10.924Z,12.88
2022-09-30T08:51:10.836Z,12.91
2022-09-30T08:52:15.971Z,12.93
2022-09-30T08:53:10.659Z,12.93
2022-09-30T08:54:10.566Z,13.08
2022-09-30T08:55:10.481Z,13.09
2022-09-30T08:56:10.385Z,13.08
2022-09-30T08:57:10.292Z,13.06
2022-09-30T08:58:10.219Z,13.23
2022-09-30T08:59:10.125Z,13.32
2022-09-30T09:00:10.031Z,13.26
2022-09-30T09:01:09.967Z,13.38
2022-09-30T09:02:12.026Z,13.38
2022-09-30T09:03:09.762Z,13.38
2022-09-30T09:04:09.680Z,13.47
2022-09-30T09:05:09.591Z,13.51
2022-09-30T09:06:09.498Z,13.58
2022-09-30T09:07:09.412Z,13.63
2022-09-30T09:08:09.316Z,13.68
2022-09-30T09:09:09.234Z,13.79
2022-09-30T09:10:09.151Z,13.79
2022-09-30T09:11:09.101Z,13.85
2022-09-30T09:12:08.977Z,13.83
2022-09-30T09:13:08.873Z,13.79
2022-09-30T09:14:08.789Z,13.80
2022-09-30T09:15:08.703Z,13.91
2022-09-30T09:16:08.679Z,13.90
2022-09-30T09:17:13.104Z,13.90
2022-09-30T09:18:23.077Z,13.83
2022-09-30T09:19:08.353Z,13.78
2022-09-30T09:20:08.260Z,13.86
2022-09-30T09:21:08.172Z,13.96
2022-09-30T09:22:08.082Z,13.91
2022-09-30T09:23:07.995Z,13.93
2022-09-30T09:24:07.907Z,13.88
2022-09-30T09:25:07.831Z,13.86
2022-09-30T09:26:07.750Z,13.94
2022-09-30T09:27:07.638Z,13.82
2022-09-30T09:28:07.621Z,13.78
2022-09-30T09:29:07.471Z,13.75
2022-09-30T09:30:07.376Z,13.83
2022-09-30T09:31:07.289Z,13.82
2022-09-30T09:32:07.246Z,13.86
2022-09-30T09:33:07.121Z,13.94
2022-09-30T09:34:07.024Z,13.88
2022-09-30T09:35:06.934Z,14.00
2022-09-30T09:36:06.849Z,13.96
2022-09-30T09:37:06.753Z,13.93
2022-09-30T09:38:06.672Z,14.00
2022-09-30T09:39:06.588Z,14.03
2022-09-30T09:40:06.496Z,13.96
2022-09-30T09:41:06.413Z,14.05
2022-09-30T09:42:06.316Z,14.03
2022-09-30T09:43:06.231Z,14.13
2022-09-30T09:44:06.138Z,14.11
2022-09-30T09:45:06.048Z,14.05
2022-09-30T09:46:06.058Z,14.08
2022-09-30T09:47:05.890Z,14.04
2022-09-30T09:48:05.789Z,14.15
2022-09-30T09:49:05.698Z,14.09
2022-09-30T09:50:05.613Z,14.16
2022-09-30T09:51:05.520Z,14.11
2022-09-30T09:52:05.432Z,14.23
2022-09-30T09:53:05.359Z,14.23
2022-09-30T09:54:05.256Z,14.23
2022-09-30T09:55:05.165Z,14.28
2022-09-30T09:56:05.080Z,14.31
2022-09-30T09:57:05.076Z,14.26
2022-09-30T09:58:04.910Z,14.22
2022-09-30T09:59:04.812Z,14.30
2022-09-30T10:00:04.774Z,14.27
2022-09-30T10:01:07.646Z,14.19
2022-09-30T10:02:04.619Z,14.16
2022-09-30T10:03:04.461Z,14.09
2022-09-30T10:04:04.382Z,14.18
2022-09-30T10:05:04.292Z,14.13
2022-09-30T10:06:04.206Z,14.08
2022-09-30T10:07:04.109Z,14.19
2022-09-30T10:08:04.021Z,14.13
2022-09-30T10:09:03.935Z,14.19
2022-09-30T10:10:03.843Z,14.15
2022-09-30T10:11:03.765Z,14.15
2022-09-30T10:12:03.673Z,14.26
2022-09-30T10:13:03.583Z,14.22
2022-09-30T10:14:03.494Z,14.30
2022-09-30T10:15:03.407Z,14.21
2022-09-30T10:16:03.384Z,14.33
2022-09-30T10:17:03.232Z,14.21
2022-09-30T10:18:03.143Z,14.26
2022-09-30T10:19:07.231Z,14.21
2022-09-30T10:20:02.972Z,14.37
2022-09-30T10:21:02.881Z,14.38
2022-09-30T10:22:02.797Z,14.41
2022-09-30T10:23:02.702Z,14.58
2022-09-30T10:24:02.616Z,14.56
2022-09-30T10:25:02.527Z,14.71
2022-09-30T10:26:02.436Z,14.67
2022-09-30T10:27:02.362Z,14.71
2022-09-30T10:28:02.351Z,14.71
2022-09-30T10:29:02.195Z,14.69
2022-09-30T10:30:02.087Z,14.77
2022-09-30T10:31:01.999Z,14.85
2022-09-30T10:32:01.985Z,14.82
2022-09-30T10:33:01.820Z,14.79
2022-09-30T10:34:01.734Z,14.90
2022-09-30T10:35:01.647Z,14.95
2022-09-30T10:36:01.559Z,14.95
2022-09-30T10:37:01.474Z,15.05
2022-09-30T10:38:01.386Z,15.01
2022-09-30T10:39:04.142Z,15.01
2022-09-30T10:40:01.209Z,15.08
2022-09-30T10:41:01.126Z,15.07
2022-09-30T10:42:01.038Z,15.08
2022-09-30T10:43:00.949Z,15.10
2022-09-30T10:44:00.855Z,15.05
2022-09-30T10:45:00.770Z,15.08
2022-09-30T10:46:24.147Z,15.10
2022-09-30T10:47:00.710Z,15.04
2022-09-30T10:48:00.507Z,15.12
2022-09-30T10:49:00.428Z,15.01
2022-09-30T10:50:00.335Z,15.01
2022-09-30T10:51:00.929Z,15.03
2022-09-30T10:52:00.159Z,14.95
2022-09-30T10:53:00.082Z,14.99
2022-09-30T10:54:00.001Z,14.97
2022-09-30T10:54:59.895Z,15.03
2022-09-30T10:55:59.798Z,15.01
2022-09-30T10:57:00.039Z,14.92
2022-09-30T10:57:59.628Z,15.01
2022-09-30T10:58:59.542Z,14.99
2022-09-30T10:59:59.457Z,14.99
2022-09-30T11:00:59.440Z,14.99
2022-09-30T11:02:00.947Z,15.03
2022-09-30T11:02:59.280Z,14.97
2022-09-30T11:03:59.117Z,14.96
2022-09-30T11:04:59.015Z,14.87
2022-09-30T11:05:58.933Z,14.85
2022-09-30T11:06:58.846Z,14.92
2022-09-30T11:07:58.755Z,14.93
2022-09-30T11:08:58.668Z,15.03
2022-09-30T11:09:58.582Z,15.04
2022-09-30T11:10:58.490Z,15.23
2022-09-30T11:11:58.409Z,15.29
2022-09-30T11:12:58.318Z,15.38
2022-09-30T11:13:58.237Z,15.45
2022-09-30T11:14:58.146Z,15.58
2022-09-30T11:15:58.106Z,15.72
2022-09-30T11:16:57.974Z,15.90
2022-09-30T11:17:57.885Z,15.95
2022-09-30T11:18:57.798Z,15.96
2022-09-30T11:19:57.714Z,16.06
2022-09-30T11:20:57.627Z,16.13
2022-09-30T11:21:57.539Z,16.25
2022-09-30T11:22:57.453Z,16.42
2022-09-30T11:23:57.366Z,16.49
2022-09-30T11:24:57.282Z,16.58
2022-09-30T11:25:57.188Z,16.65
2022-09-30T11:26:57.098Z,16.74
2022-09-30T11:27:57.088Z,16.76
2022-09-30T11:28:56.926Z,16.88
2022-09-30T11:29:56.843Z,16.87
2022-09-30T11:30:56.752Z,16.95
2022-09-30T11:31:56.722Z,16.99
2022-09-30T11:32:56.583Z,17.04
2022-09-30T11:33:56.495Z,17.10
2022-09-30T11:34:56.412Z,17.14
2022-09-30T11:35:56.322Z,17.13
2022-09-30T11:36:56.235Z,17.12
2022-09-30T11:37:56.154Z,17.14
2022-09-30T11:38:56.065Z,17.16
2022-09-30T11:39:55.971Z,16.99
2022-09-30T11:40:55.885Z,16.99
2022-09-30T11:41:55.807Z,17.02
2022-09-30T11:42:55.721Z,16.91
2022-09-30T11:43:55.634Z,16.72
2022-09-30T11:44:55.549Z,16.73
2022-09-30T11:45:55.555Z,16.58
2022-09-30T11:46:55.374Z,16.61
2022-09-30T11:47:55.285Z,16.73
2022-09-30T11:48:55.200Z,16.74
2022-09-30T11:49:55.117Z,16.65
2022-09-30T11:50:55.035Z,16.62
2022-09-30T11:51:54.949Z,16.59
2022-09-30T11:52:54.855Z,16.64
2022-09-30T11:53:54.768Z,16.64
2022-09-30T11:54:54.680Z,16.70
2022-09-30T11:55:54.592Z,16.74
2022-09-30T11:56:54.508Z,16.87
2022-09-30T11:57:54.425Z,16.91
2022-09-30T11:58:54.332Z,16.98
2022-09-30T11:59:54.256Z,17.02
2022-09-30T12:00:54.160Z,17.02
2022-09-30T12:01:54.130Z,17.01
2022-09-30T12:02:54.040Z,17.06
2022-09-30T12:03:53.914Z,17.12
2022-09-30T12:04:53.823Z,17.16
2022-09-30T12:05:53.767Z,17.12
2022-09-30T12:06:53.640Z,17.30
2022-09-30T12:07:53.567Z,17.31
2022-09-30T12:08:53.477Z,17.22
2022-09-30T12:09:53.385Z,17.25
2022-09-30T12:10:53.296Z,17.38
2022-09-30T12:11:53.218Z,17.41
2022-09-30T12:12:53.139Z,17.46
2022-09-30T12:13:53.064Z,17.50
2022-09-30T12:14:52.952Z,17.46
2022-09-30T12:15:52.875Z,17.50
2022-09-30T12:16:52.803Z,17.47
2022-09-30T12:17:52.727Z,17.53
2022-09-30T12:18:52.613Z,17.56
2022-09-30T12:19:52.569Z,17.41
2022-09-30T12:20:52.480Z,17.37
2022-09-30T12:21:52.354Z,17.37
2022-09-30T12:22:52.315Z,17.38
2022-09-30T12:23:52.192Z,17.43
2022-09-30T12:24:52.093Z,17.35
2022-09-30T12:25:52.013Z,17.43
2022-09-30T12:26:51.926Z,17.49
2022-09-30T12:27:51.917Z,17.53
2022-09-30T12:28:51.755Z,17.57
2022-09-30T12:29:51.720Z,17.52
2022-09-30T12:30:51.584Z,17.54
2022-09-30T12:31:51.547Z,17.54
2022-09-30T12:32:51.409Z,17.57
2022-09-30T12:33:51.345Z,17.52
2022-09-30T12:34:51.255Z,17.50
2022-09-30T12:35:51.150Z,17.54
2022-09-30T12:36:51.064Z,17.59
2022-09-30T12:37:50.989Z,17.65
2022-09-30T12:38:50.896Z,17.66
2022-09-30T12:39:50.812Z,17.69
2022-09-30T12:40:52.783Z,17.68
2022-09-30T12:41:50.646Z,17.72
2022-09-30T12:42:50.555Z,17.83
2022-09-30T12:43:50.482Z,17.87
2022-09-30T12:44:50.378Z,17.90
2022-09-30T12:45:50.334Z,17.91
2022-09-30T12:46:50.210Z,17.88
2022-09-30T12:47:50.134Z,17.79
2022-09-30T12:48:50.047Z,17.65
2022-09-30T12:49:49.969Z,17.47
2022-09-30T12:50:49.878Z,17.31
2022-09-30T12:51:49.788Z,17.37
2022-09-30T12:52:49.699Z,17.24
2022-09-30T12:53:49.638Z,17.31
2022-09-30T12:54:49.552Z,17.37
2022-09-30T12:55:49.460Z,17.38
2022-09-30T12:56:49.352Z,17.54
2022-09-30T12:57:49.273Z,17.59
2022-09-30T12:58:49.184Z,17.72
2022-09-30T12:59:49.149Z,17.68
2022-09-30T13:00:49.053Z,17.75
2022-09-30T13:01:48.954Z,17.90
2022-09-30T13:02:48.870Z,17.93
2022-09-30T13:03:48.760Z,17.94
2022-09-30T13:04:48.949Z,17.91
2022-09-30T13:05:48.589Z,17.91
2022-09-30T13:06:48.536Z,18.06
2022-09-30T13:07:48.420Z,18.13
2022-09-30T13:08:48.327Z,18.21